EDDL/DUS METAR and TAF weather

Enter ICAO airport designator
Station Type Date Time Source
EDDL METAR 2020/01/22 15:20 UTC NOAA

EDDL 221520Z 19005KT 1700 -DZ BR OVC003 01/01 Q1036 BECMG 1200


Station Type Date Time Source
EDDL Decoded METAR 2020/01/22 15:20 UTC NOAA

Duesseldorf, Germany (EDDL) 51-18N 006-46E 41M
Jan 22, 2020 - 10:20 AM EST / 2020.01.22 1520 UTC
Wind: from the S (190 degrees) at 6 MPH (5 KT):0
Visibility: 1 mile(s):0
Sky conditions: overcast
Weather: light drizzle; mist
Temperature: 33 F (1 C)
Windchill: 26 F (-3 C):1
Dew Point: 33 F (1 C)
Relative Humidity: 100%
Pressure (altimeter): 30.59 in. Hg (1036 hPa)
ob: EDDL 221520Z 19005KT 1700 -DZ BR OVC003 01/01 Q1036 BECMG 1200
cycle: 15

Station Type Date Time Source
EDDL TAF 2020/01/22 12:28 UTC NOAA

TAF EDDL 221100Z 2212/2318 VRB03KT 4500 BR SCT004 BKN008
TEMPO 2212/2220 2500 BR BKN004
BECMG 2220/2223 2500 BR BKN004
TEMPO 2221/2308 1200 BR PROB30
TEMPO 2222/2307 0600 FG OVC001
BECMG 2309/2312 4000 BR SCT005 BKN010
BECMG 2313/2316 6000 BKN015

Example: see airport list